Time;durP1;ratioP1;P1;durP2;ratioP2;P2;SDS_P1;SDS_P2;PMS_P1;PMS_P2;Temp;Humidity;BMP_temperature;BMP_pressure;BME280_temperature;BME280_humidity;BME280_pressure;Samples;Min_cycle;Max_cycle;Signal;HPM_P1;HPM_P2
2022/10/13 00:01:49;;;;;;;17.60;10.23;;;10.80;99.90;;;;;;5087058;28;20044;-68
2022/10/13 00:04:15;;;;;;;16.40;10.63;;;10.90;99.90;;;;;;5072540;28;20045;-68
2022/10/13 00:06:41;;;;;;;16.33;10.40;;;10.90;99.90;;;;;;5089131;28;20116;-68
2022/10/13 00:09:06;;;;;;;17.13;9.45;;;10.90;99.90;;;;;;5070197;28;20048;-68
2022/10/13 00:11:32;;;;;;;20.40;11.15;;;10.80;99.90;;;;;;5069005;28;20063;-69
2022/10/13 00:14:00;;;;;;;15.93;9.90;;;10.80;99.90;;;;;;5074203;28;20044;-68
2022/10/13 00:16:28;;;;;;;16.75;9.77;;;10.80;99.90;;;;;;5084934;28;20428;-69
2022/10/13 00:18:54;;;;;;;20.17;11.13;;;10.80;99.90;;;;;;5087012;28;20114;-68
2022/10/13 00:21:23;;;;;;;17.83;10.70;;;10.80;99.90;;;;;;5090645;28;20072;-68
2022/10/13 00:23:51;;;;;;;14.82;10.18;;;10.70;99.90;;;;;;5088740;28;20036;-68
2022/10/13 00:26:18;;;;;;;15.80;10.48;;;10.70;99.90;;;;;;5083799;28;20052;-68
2022/10/13 00:28:44;;;;;;;21.05;11.32;;;10.70;99.90;;;;;;5088675;28;20056;-68
2022/10/13 00:31:23;;;;;;;17.98;10.95;;;10.70;99.90;;;;;;5091712;28;20075;-68
2022/10/13 00:33:49;;;;;;;19.70;10.75;;;10.70;99.90;;;;;;5068555;28;20131;-68
2022/10/13 00:36:15;;;;;;;22.88;12.05;;;10.70;99.90;;;;;;5087269;28;20036;-68
2022/10/13 00:38:41;;;;;;;17.65;10.27;;;10.70;99.90;;;;;;5068396;28;20055;-68
2022/10/13 00:41:07;;;;;;;20.98;11.48;;;10.70;99.90;;;;;;5086832;28;20044;-68
2022/10/13 00:43:53;;;;;;;18.50;11.00;;;10.70;99.90;;;;;;5086253;28;20040;-68
2022/10/13 00:46:21;;;;;;;18.88;11.48;;;10.80;99.90;;;;;;5086153;28;20036;-68
2022/10/13 00:48:49;;;;;;;18.23;10.68;;;10.70;99.90;;;;;;5065868;28;20048;-68
2022/10/13 00:51:20;;;;;;;17.88;11.48;;;10.80;99.90;;;;;;5085514;28;20040;-68
2022/10/13 00:53:47;;;;;;;22.20;11.70;;;10.80;99.90;;;;;;5069254;28;20045;-68
2022/10/13 00:56:15;;;;;;;18.40;11.05;;;10.80;99.90;;;;;;5055110;28;20216;-69
2022/10/13 00:58:41;;;;;;;14.95;10.30;;;10.80;99.90;;;;;;5084578;28;20044;-68
2022/10/13 01:01:07;;;;;;;20.67;11.45;;;10.70;99.90;;;;;;5083990;28;20047;-69
2022/10/13 01:03:33;;;;;;;19.13;11.25;;;10.70;99.90;;;;;;5083866;28;20845;-69
2022/10/13 01:06:02;;;;;;;16.80;11.65;;;10.70;99.90;;;;;;5087709;28;20067;-69
2022/10/13 01:08:29;;;;;;;20.63;12.05;;;10.60;99.90;;;;;;5067706;28;20048;-68
2022/10/13 01:11:09;;;;;;;18.83;11.60;;;10.60;99.90;;;;;;5085426;28;20047;-69
2022/10/13 01:14:16;;;;;;;19.48;11.57;;;10.60;99.90;;;;;;5085585;28;20044;-69
2022/10/13 01:17:16;;;;;;;17.95;12.00;;;10.70;99.90;;;;;;5042584;28;20053;-69
2022/10/13 01:20:08;;;;;;;16.30;11.05;;;10.70;99.90;;;;;;5067228;28;20075;-69
2022/10/13 01:22:42;;;;;;;23.30;12.60;;;10.60;99.90;;;;;;5053924;28;20048;-68
2022/10/13 01:25:13;;;;;;;21.23;12.82;;;10.60;99.90;;;;;;5047758;28;20074;-69
2022/10/13 01:27:47;;;;;;;19.00;12.35;;;10.60;99.90;;;;;;5064113;28;20037;-69
2022/10/13 01:30:21;;;;;;;21.23;12.45;;;10.60;99.90;;;;;;5071461;28;20059;-68
2022/10/13 01:33:00;;;;;;;18.17;11.30;;;10.60;99.90;;;;;;5047744;28;20104;-69
2022/10/13 01:36:04;;;;;;;18.35;11.63;;;10.60;99.90;;;;;;5066236;28;20044;-69
2022/10/13 01:38:44;;;;;;;19.15;12.00;;;10.60;99.90;;;;;;5064440;28;20055;-68
2022/10/13 01:41:30;;;;;;;17.42;11.95;;;10.60;99.90;;;;;;5050601;28;20476;-69
2022/10/13 01:44:15;;;;;;;19.30;11.40;;;10.60;99.90;;;;;;5064918;28;20079;-68
2022/10/13 01:46:44;;;;;;;19.73;12.07;;;10.60;99.90;;;;;;5066899;28;20106;-68
2022/10/13 01:49:12;;;;;;;19.67;11.68;;;10.60;99.90;;;;;;5055389;28;20052;-68
2022/10/13 01:51:39;;;;;;;20.23;12.75;;;10.60;99.90;;;;;;5068218;28;20041;-68
2022/10/13 01:54:05;;;;;;;21.63;12.30;;;10.60;99.90;;;;;;5048377;28;20043;-69
2022/10/13 01:56:31;;;;;;;18.10;11.35;;;10.60;99.90;;;;;;5047807;28;20477;-68
2022/10/13 01:59:01;;;;;;;17.40;11.75;;;10.60;99.90;;;;;;5048955;28;20133;-68
2022/10/13 02:01:54;;;;;;;19.00;11.35;;;10.60;99.90;;;;;;5043193;28;20052;-69
2022/10/13 02:04:20;;;;;;;17.25;11.02;;;10.60;99.90;;;;;;5061382;28;20508;-68
2022/10/13 02:07:19;;;;;;;17.63;11.32;;;10.60;99.90;;;;;;5049236;28;20048;-68
2022/10/13 02:10:05;;;;;;;19.43;12.10;;;10.70;99.90;;;;;;5067995;28;20082;-68
2022/10/13 02:12:43;;;;;;;18.48;10.95;;;10.60;99.90;;;;;;5044511;28;20318;-68
2022/10/13 02:15:15;;;;;;;16.75;10.77;;;10.70;99.90;;;;;;5063591;28;20090;-69
2022/10/13 02:17:41;;;;;;;16.27;11.38;;;10.70;99.90;;;;;;5040714;28;20053;-69
2022/10/13 02:20:08;;;;;;;15.52;12.45;;;10.70;99.90;;;;;;5076489;28;20040;-69
2022/10/13 02:22:41;;;;;;;17.75;11.20;;;10.70;99.90;;;;;;5066726;28;20519;-69
2022/10/13 02:25:07;;;;;;;16.50;11.15;;;10.80;99.90;;;;;;5085447;28;20045;-68
2022/10/13 02:27:33;;;;;;;21.48;12.13;;;10.80;99.90;;;;;;5036588;28;20132;-69
2022/10/13 02:29:59;;;;;;;19.33;11.60;;;10.90;99.90;;;;;;5075057;28;20414;-68
2022/10/13 02:32:24;;;;;;;20.05;11.93;;;10.80;99.90;;;;;;5056334;28;20097;-68
2022/10/13 02:34:51;;;;;;;19.85;12.80;;;10.90;99.90;;;;;;5060970;28;20045;-68
2022/10/13 02:37:16;;;;;;;20.63;11.45;;;10.80;99.90;;;;;;5083164;28;20044;-69
2022/10/13 02:39:42;;;;;;;22.35;12.73;;;10.80;99.90;;;;;;5072822;28;20037;-69
2022/10/13 02:42:08;;;;;;;23.63;12.48;;;10.80;99.90;;;;;;5079331;28;20045;-68
2022/10/13 02:44:33;;;;;;;25.33;13.52;;;10.80;99.90;;;;;;5077103;28;20037;-68
2022/10/13 02:46:59;;;;;;;20.95;13.35;;;10.80;99.90;;;;;;5061917;28;20045;-69
2022/10/13 02:49:25;;;;;;;22.05;13.35;;;10.80;99.90;;;;;;5074780;28;20064;-68
2022/10/13 02:51:52;;;;;;;20.50;12.43;;;10.70;99.90;;;;;;5080132;28;20131;-69
2022/10/13 02:54:18;;;;;;;21.25;13.55;;;10.70;99.90;;;;;;5066941;28;20096;-68
2022/10/13 02:56:43;;;;;;;21.40;13.00;;;10.70;99.90;;;;;;5071447;28;20076;-69
2022/10/13 02:59:09;;;;;;;20.52;13.55;;;10.70;99.90;;;;;;5066238;28;20095;-68
2022/10/13 03:01:40;;;;;;;17.02;12.40;;;10.70;99.90;;;;;;5088531;28;20052;-69
2022/10/13 03:04:06;;;;;;;22.90;13.10;;;10.60;99.90;;;;;;5055528;28;20053;-69
2022/10/13 03:06:32;;;;;;;22.90;14.30;;;10.70;99.90;;;;;;5061724;28;20052;-68
2022/10/13 03:08:58;;;;;;;22.88;13.00;;;10.60;99.90;;;;;;5082268;28;20098;-69
2022/10/13 03:11:24;;;;;;;18.25;13.40;;;10.60;99.90;;;;;;5085378;28;20083;-69
2022/10/13 03:13:49;;;;;;;20.92;12.95;;;10.60;99.90;;;;;;5084105;28;20123;-69
2022/10/13 03:16:15;;;;;;;19.50;13.05;;;10.60;99.90;;;;;;5061158;28;20084;-68
2022/10/13 03:18:41;;;;;;;21.80;13.35;;;10.70;99.90;;;;;;5085633;28;20044;-69
2022/10/13 03:21:07;;;;;;;23.27;13.48;;;10.60;99.90;;;;;;5070853;28;20113;-69
2022/10/13 03:23:33;;;;;;;17.35;12.98;;;10.60;99.90;;;;;;5056703;28;20040;-68
2022/10/13 03:25:58;;;;;;;21.17;13.90;;;10.60;99.90;;;;;;5074702;28;20072;-68
2022/10/13 03:28:24;;;;;;;19.30;13.45;;;10.60;99.90;;;;;;5087555;28;20147;-68
2022/10/13 03:30:58;;;;;;;19.40;13.50;;;10.60;99.90;;;;;;5079692;28;20049;-69
2022/10/13 03:33:23;;;;;;;19.75;12.50;;;10.60;99.90;;;;;;5084113;28;20103;-69
2022/10/13 03:35:49;;;;;;;19.33;12.88;;;10.60;99.90;;;;;;5072800;28;20049;-68
2022/10/13 03:38:15;;;;;;;21.83;13.18;;;10.60;99.90;;;;;;5069084;28;20040;-69
2022/10/13 03:40:40;;;;;;;24.95;13.50;;;10.60;99.90;;;;;;5083210;28;20051;-68
2022/10/13 03:43:06;;;;;;;19.55;13.98;;;10.60;99.90;;;;;;5072434;28;20044;-68
2022/10/13 03:45:32;;;;;;;22.85;13.90;;;10.70;99.90;;;;;;5086685;28;20294;-69
2022/10/13 03:47:57;;;;;;;22.00;14.25;;;10.70;99.90;;;;;;5069061;28;20052;-69
2022/10/13 03:50:23;;;;;;;19.73;14.20;;;10.70;99.90;;;;;;5069616;28;20097;-69
2022/10/13 03:52:49;;;;;;;21.05;14.45;;;10.70;99.90;;;;;;5050681;28;20052;-69
2022/10/13 03:55:14;;;;;;;23.30;13.80;;;10.70;99.90;;;;;;5080926;28;20041;-67
2022/10/13 03:57:40;;;;;;;21.50;14.95;;;10.70;99.90;;;;;;5066163;28;20079;-68
2022/10/13 04:00:09;;;;;;;18.15;13.57;;;10.70;99.90;;;;;;5066406;28;20070;-68
2022/10/13 04:02:35;;;;;;;27.33;16.48;;;10.70;99.90;;;;;;5078249;28;20047;-67
2022/10/13 04:05:01;;;;;;;21.55;14.02;;;10.60;99.90;;;;;;5056234;28;20048;-67
2022/10/13 04:07:26;;;;;;;21.30;13.38;;;10.60;99.90;;;;;;5082492;28;20052;-67
2022/10/13 04:09:52;;;;;;;19.63;14.15;;;10.60;99.90;;;;;;5062902;28;20053;-68
2022/10/13 04:12:18;;;;;;;21.13;15.48;;;10.60;99.90;;;;;;5056729;28;20059;-67
2022/10/13 04:14:44;;;;;;;22.50;15.27;;;10.60;99.90;;;;;;5072749;28;20072;-67
2022/10/13 04:17:09;;;;;;;22.95;15.15;;;10.60;99.90;;;;;;5057525;28;20053;-67
2022/10/13 04:19:35;;;;;;;21.15;15.13;;;10.60;99.90;;;;;;5069348;28;20508;-68
2022/10/13 04:22:01;;;;;;;25.02;16.08;;;10.50;99.90;;;;;;5047689;28;20123;-67
2022/10/13 04:24:26;;;;;;;23.40;15.73;;;10.60;99.90;;;;;;5070393;28;20044;-67
2022/10/13 04:26:52;;;;;;;22.67;16.00;;;10.60;99.90;;;;;;5051350;28;20088;-67
2022/10/13 04:29:18;;;;;;;23.50;16.20;;;10.50;99.90;;;;;;5047318;28;20075;-67
2022/10/13 04:31:44;;;;;;;22.95;15.38;;;10.40;99.90;;;;;;5067882;28;20044;-67
2022/10/13 04:34:11;;;;;;;26.95;16.48;;;10.50;99.90;;;;;;5065813;28;20063;-67
2022/10/13 04:36:37;;;;;;;25.42;16.60;;;10.50;99.90;;;;;;5066276;28;20055;-68
2022/10/13 04:39:03;;;;;;;22.00;15.25;;;10.50;99.90;;;;;;5067419;28;20119;-67
2022/10/13 04:41:29;;;;;;;24.35;16.02;;;10.60;99.90;;;;;;5050745;28;20477;-67
2022/10/13 04:43:55;;;;;;;22.13;15.75;;;10.60;99.90;;;;;;5066435;28;20170;-67
2022/10/13 04:46:27;;;;;;;25.60;17.00;;;10.50;99.90;;;;;;5070044;28;20060;-68
2022/10/13 04:48:54;;;;;;;30.45;20.30;;;10.60;99.90;;;;;;5049826;28;20127;-68
2022/10/13 04:51:23;;;;;;;29.95;20.08;;;10.60;99.90;;;;;;5051558;28;20051;-68
2022/10/13 04:53:57;;;;;;;25.65;16.92;;;10.60;99.90;;;;;;5070091;28;20070;-68
2022/10/13 04:56:23;;;;;;;25.23;15.95;;;10.60;99.90;;;;;;5050204;28;20120;-67
2022/10/13 04:58:49;;;;;;;23.20;17.20;;;10.60;99.90;;;;;;5049729;28;20048;-67
2022/10/13 05:01:21;;;;;;;29.17;18.23;;;10.60;99.90;;;;;;5050396;28;20052;-68
2022/10/13 05:03:53;;;;;;;25.30;17.27;;;10.60;99.90;;;;;;5067816;28;20036;-68
2022/10/13 05:06:22;;;;;;;27.73;18.30;;;10.60;99.90;;;;;;5048527;28;20053;-68
2022/10/13 05:08:48;;;;;;;25.15;17.08;;;10.60;99.90;;;;;;5066933;28;20048;-68
2022/10/13 05:11:14;;;;;;;27.98;20.27;;;10.60;99.90;;;;;;5010470;28;20383;-68
2022/10/13 05:13:39;;;;;;;26.23;18.67;;;10.60;99.90;;;;;;5063002;28;20036;-67
2022/10/13 05:16:10;;;;;;;21.45;16.70;;;10.60;99.90;;;;;;5068629;28;20064;-68
2022/10/13 05:18:36;;;;;;;26.30;18.23;;;10.60;99.90;;;;;;5068259;28;20076;-68
2022/10/13 05:21:26;;;;;;;27.70;18.63;;;10.60;99.90;;;;;;5042878;28;20164;-68
2022/10/13 05:23:54;;;;;;;28.42;18.77;;;10.60;99.90;;;;;;5050022;28;20056;-67
2022/10/13 05:26:22;;;;;;;24.67;17.95;;;10.50;99.90;;;;;;5062063;28;20401;-66
2022/10/13 05:28:48;;;;;;;26.80;19.42;;;10.60;99.90;;;;;;5064087;28;20045;-66
2022/10/13 05:31:19;;;;;;;28.77;18.17;;;10.60;99.90;;;;;;5065485;28;20040;-66
2022/10/13 05:33:46;;;;;;;27.90;18.67;;;10.60;99.90;;;;;;5044358;28;20053;-66
2022/10/13 05:36:15;;;;;;;25.73;17.58;;;10.60;99.90;;;;;;5062802;28;20067;-65
2022/10/13 05:38:41;;;;;;;27.58;18.83;;;10.60;99.90;;;;;;5065326;28;20563;-66
2022/10/13 05:41:09;;;;;;;26.08;18.33;;;10.60;99.90;;;;;;5061043;28;20069;-67
2022/10/13 05:43:36;;;;;;;27.75;17.55;;;10.70;99.90;;;;;;5062154;28;20045;-67
2022/10/13 05:46:02;;;;;;;32.47;19.27;;;10.60;99.90;;;;;;5065256;28;20048;-67
2022/10/13 05:48:30;;;;;;;26.48;18.35;;;10.70;99.90;;;;;;5047543;28;20052;-67
2022/10/13 05:50:59;;;;;;;25.27;17.23;;;10.70;99.90;;;;;;5062459;28;20444;-67
2022/10/13 05:53:29;;;;;;;29.17;17.83;;;10.70;99.90;;;;;;5062615;28;20129;-67
2022/10/13 05:56:04;;;;;;;28.33;17.08;;;10.70;99.90;;;;;;5044892;28;20093;-66
2022/10/13 05:58:33;;;;;;;26.80;17.92;;;10.70;99.90;;;;;;5047598;28;20049;-66
2022/10/13 06:00:58;;;;;;;25.48;18.20;;;10.70;99.90;;;;;;5046432;28;20045;-67
2022/10/13 06:03:26;;;;;;;28.05;18.08;;;10.80;99.90;;;;;;5061965;28;20076;-67
2022/10/13 06:05:52;;;;;;;24.40;17.48;;;10.80;99.90;;;;;;5063402;28;20056;-66
2022/10/13 06:08:17;;;;;;;23.70;17.92;;;10.80;99.90;;;;;;5037647;28;20045;-68
2022/10/13 06:10:44;;;;;;;22.20;17.15;;;10.80;99.90;;;;;;5006660;28;20083;-69
2022/10/13 06:13:10;;;;;;;24.05;17.38;;;10.80;99.90;;;;;;5012662;28;20136;-67
2022/10/13 06:15:35;;;;;;;24.27;17.73;;;10.80;99.90;;;;;;5046166;28;20095;-67
2022/10/13 06:18:01;;;;;;;24.15;17.40;;;10.90;99.90;;;;;;5049342;28;20064;-67
2022/10/13 06:20:27;;;;;;;22.58;18.00;;;10.90;99.90;;;;;;5029378;28;20119;-67
2022/10/13 06:22:54;;;;;;;24.20;17.05;;;11.00;99.90;;;;;;5027564;28;20049;-67
2022/10/13 06:25:20;;;;;;;23.75;17.17;;;10.90;99.90;;;;;;5040520;28;20045;-67
2022/10/13 06:27:45;;;;;;;25.42;16.80;;;10.90;99.90;;;;;;5013944;28;20060;-67
2022/10/13 06:30:11;;;;;;;22.17;17.70;;;11.00;99.90;;;;;;5051776;28;20060;-68
2022/10/13 06:32:37;;;;;;;24.90;16.70;;;11.00;99.90;;;;;;5046448;28;20045;-67
2022/10/13 06:35:03;;;;;;;23.05;17.15;;;11.00;99.90;;;;;;5031676;28;20053;-68
2022/10/13 06:37:29;;;;;;;21.40;16.52;;;11.00;99.90;;;;;;5011699;28;20045;-68
2022/10/13 06:39:54;;;;;;;25.75;17.38;;;11.00;99.90;;;;;;5054211;28;20712;-68
2022/10/13 06:42:20;;;;;;;23.73;18.10;;;11.10;99.90;;;;;;5048203;28;20069;-68
2022/10/13 06:44:46;;;;;;;26.38;17.17;;;11.00;99.90;;;;;;5051105;28;20049;-65
2022/10/13 06:47:11;;;;;;;23.73;17.65;;;11.10;99.90;;;;;;5045330;28;20102;-65
2022/10/13 06:49:37;;;;;;;28.08;17.45;;;11.00;99.90;;;;;;5042909;28;21114;-68
2022/10/13 06:52:03;;;;;;;28.33;17.65;;;11.10;99.90;;;;;;5042260;28;20037;-66
2022/10/13 06:54:29;;;;;;;23.23;17.70;;;11.10;99.90;;;;;;5041171;28;20041;-65
2022/10/13 06:56:55;;;;;;;28.95;18.23;;;11.10;99.90;;;;;;5030647;28;20071;-64
2022/10/13 06:59:21;;;;;;;23.42;16.95;;;11.10;99.90;;;;;;5060576;28;20082;-66
2022/10/13 07:01:47;;;;;;;22.98;16.48;;;11.10;99.90;;;;;;5031740;28;20112;-65
2022/10/13 07:04:13;;;;;;;23.15;16.58;;;11.20;99.90;;;;;;5045533;28;20032;-65
2022/10/13 07:06:39;;;;;;;23.73;16.63;;;11.20;99.90;;;;;;5034729;28;20338;-65
2022/10/13 07:09:06;;;;;;;23.92;16.58;;;11.20;99.90;;;;;;5043783;28;20054;-65
2022/10/13 07:11:31;;;;;;;23.63;17.75;;;11.20;99.90;;;;;;5021281;28;20128;-66
2022/10/13 07:13:57;;;;;;;24.95;17.70;;;11.10;99.90;;;;;;5066785;28;20082;-65
2022/10/13 07:16:23;;;;;;;25.55;16.80;;;11.10;99.90;;;;;;5030215;28;20132;-65
2022/10/13 07:18:49;;;;;;;26.15;18.83;;;11.20;99.90;;;;;;5046416;28;20114;-64
2022/10/13 07:21:15;;;;;;;22.20;17.23;;;11.20;99.90;;;;;;5061190;28;20049;-65
2022/10/13 07:23:41;;;;;;;27.10;18.02;;;11.30;99.90;;;;;;5060612;28;20044;-65
2022/10/13 07:26:08;;;;;;;24.65;17.70;;;11.20;99.90;;;;;;5044427;28;20113;-65
2022/10/13 07:28:34;;;;;;;25.10;17.45;;;11.20;99.90;;;;;;5058464;28;20058;-66
2022/10/13 07:31:05;;;;;;;25.65;18.73;;;11.20;99.90;;;;;;5044116;28;20076;-66
2022/10/13 07:33:31;;;;;;;24.20;17.55;;;11.30;99.90;;;;;;5050214;28;20045;-66
2022/10/13 07:35:58;;;;;;;25.52;17.35;;;11.20;99.90;;;;;;5050261;28;20194;-66
2022/10/13 07:38:24;;;;;;;25.23;17.88;;;11.20;99.90;;;;;;5061364;28;20492;-66
2022/10/13 07:40:50;;;;;;;23.90;18.10;;;11.20;99.90;;;;;;5044900;28;20044;-65
2022/10/13 07:43:15;;;;;;;28.30;18.73;;;11.30;99.90;;;;;;5062337;28;20595;-65
2022/10/13 07:45:41;;;;;;;28.73;19.80;;;11.30;99.90;;;;;;5078217;28;20041;-65
2022/10/13 07:48:07;;;;;;;28.42;19.40;;;11.30;99.90;;;;;;5065630;28;20104;-65
2022/10/13 07:50:32;;;;;;;27.17;19.15;;;11.30;99.90;;;;;;5039732;28;20594;-65
2022/10/13 07:52:58;;;;;;;28.33;19.25;;;11.40;99.90;;;;;;5048667;28;20068;-65
2022/10/13 07:55:24;;;;;;;26.33;18.45;;;11.30;99.90;;;;;;5066313;28;20064;-65
2022/10/13 07:57:49;;;;;;;28.88;18.25;;;11.40;99.90;;;;;;5078570;28;20131;-70
2022/10/13 08:00:15;;;;;;;25.00;17.77;;;11.40;99.90;;;;;;5085353;28;20098;-71
2022/10/13 08:02:41;;;;;;;29.30;18.95;;;11.50;99.90;;;;;;5067064;28;20076;-70
2022/10/13 08:05:07;;;;;;;31.02;18.35;;;11.50;99.90;;;;;;5084232;28;20579;-70
2022/10/13 08:07:33;;;;;;;26.98;18.73;;;11.50;99.90;;;;;;5086846;28;20048;-70
2022/10/13 08:09:58;;;;;;;27.08;19.05;;;11.50;99.90;;;;;;5059016;28;20072;-71
2022/10/13 08:12:24;;;;;;;28.67;20.10;;;11.60;99.90;;;;;;5066099;28;20044;-70
2022/10/13 08:14:50;;;;;;;28.80;19.00;;;11.70;99.90;;;;;;5066646;28;20033;-70
2022/10/13 08:17:16;;;;;;;30.17;19.50;;;11.70;99.90;;;;;;5068785;28;20465;-70
2022/10/13 08:19:42;;;;;;;29.48;19.45;;;11.70;99.90;;;;;;5086802;28;20047;-70
2022/10/13 08:22:09;;;;;;;32.90;19.98;;;11.80;99.90;;;;;;5082079;28;20037;-70
2022/10/13 08:24:35;;;;;;;27.17;20.23;;;11.90;99.90;;;;;;5066666;28;20059;-70
2022/10/13 08:27:01;;;;;;;26.92;20.10;;;12.00;99.90;;;;;;5082997;28;20040;-71
2022/10/13 08:29:26;;;;;;;27.58;18.85;;;12.00;99.90;;;;;;5085486;28;20041;-71
2022/10/13 08:31:54;;;;;;;27.20;18.05;;;12.10;99.90;;;;;;5065956;28;20102;-71
2022/10/13 08:34:21;;;;;;;29.48;20.13;;;12.30;99.90;;;;;;5080834;28;20469;-71
2022/10/13 08:36:47;;;;;;;32.40;20.92;;;12.40;99.90;;;;;;5057797;28;20052;-70
2022/10/13 08:39:13;;;;;;;29.20;19.77;;;12.50;99.90;;;;;;5080237;28;20547;-70
2022/10/13 08:41:42;;;;;;;27.60;21.15;;;12.50;99.90;;;;;;5066643;28;20046;-70
2022/10/13 08:44:34;;;;;;;29.27;19.90;;;12.60;99.90;;;;;;5070568;28;20048;-71
2022/10/13 08:47:28;;;;;;;30.15;19.40;;;12.50;99.90;;;;;;5063843;28;20055;-70
2022/10/13 08:49:57;;;;;;;33.28;21.27;;;12.60;99.90;;;;;;5081183;28;20082;-70
2022/10/13 08:52:26;;;;;;;30.52;21.08;;;12.60;99.90;;;;;;5070988;28;20269;-71
2022/10/13 08:54:54;;;;;;;32.38;20.55;;;12.60;99.90;;;;;;5060741;28;20072;-70
2022/10/13 08:57:20;;;;;;;25.45;19.35;;;12.70;99.90;;;;;;5081078;28;20073;-70
2022/10/13 08:59:47;;;;;;;27.48;19.35;;;12.70;99.90;;;;;;5086092;28;20067;-70
2022/10/13 09:02:29;;;;;;;28.60;18.75;;;12.70;99.90;;;;;;5050468;28;20415;-69
2022/10/13 09:05:00;;;;;;;30.55;20.25;;;12.70;99.90;;;;;;5068812;28;20044;-70
2022/10/13 09:07:30;;;;;;;34.67;21.25;;;12.80;99.90;;;;;;5079511;28;20041;-70
2022/10/13 09:09:56;;;;;;;31.45;22.02;;;13.00;99.90;;;;;;5079156;28;20101;-70
2022/10/13 09:12:23;;;;;;;32.63;20.83;;;12.80;99.90;;;;;;5070492;28;20044;-70
2022/10/13 09:15:01;;;;;;;29.27;21.05;;;12.80;99.90;;;;;;5087428;28;20056;-70
2022/10/13 09:17:28;;;;;;;27.23;19.98;;;12.70;99.90;;;;;;5046386;28;20053;-70
2022/10/13 09:20:23;;;;;;;33.85;22.40;;;12.70;99.90;;;;;;5086167;28;20101;-70
2022/10/13 09:23:27;;;;;;;29.65;22.52;;;12.80;99.90;;;;;;5067695;28;20064;-70
2022/10/13 09:25:54;;;;;;;30.40;20.25;;;12.90;99.90;;;;;;5068585;28;20070;-70
2022/10/13 09:28:29;;;;;;;28.98;21.65;;;12.80;99.90;;;;;;5069586;28;20083;-70
2022/10/13 09:31:13;;;;;;;31.77;23.05;;;12.80;99.90;;;;;;5088712;28;20050;-70
2022/10/13 09:33:39;;;;;;;29.65;22.95;;;12.90;99.90;;;;;;5071245;28;20047;-70
2022/10/13 09:36:11;;;;;;;29.90;22.48;;;13.00;99.90;;;;;;5086846;28;20124;-70
2022/10/13 09:38:38;;;;;;;30.98;21.67;;;13.00;99.90;;;;;;5088509;28;20048;-70
2022/10/13 09:41:08;;;;;;;28.30;22.58;;;13.00;99.90;;;;;;5067307;28;20044;-70
2022/10/13 09:43:39;;;;;;;28.88;21.38;;;12.90;99.90;;;;;;5052671;28;20477;-70
2022/10/13 09:46:25;;;;;;;34.08;22.73;;;12.90;99.90;;;;;;5084426;28;20101;-69
2022/10/13 09:49:01;;;;;;;31.08;23.73;;;12.90;99.90;;;;;;5071004;28;20044;-69
2022/10/13 09:51:38;;;;;;;33.78;22.17;;;12.90;99.90;;;;;;5067837;28;20048;-69
2022/10/13 09:54:06;;;;;;;34.90;23.00;;;13.00;99.90;;;;;;5066599;28;20049;-69
2022/10/13 09:56:45;;;;;;;31.67;22.48;;;13.00;99.90;;;;;;5070887;28;20063;-69
2022/10/13 09:59:22;;;;;;;33.85;23.25;;;13.10;99.90;;;;;;5070912;28;20127;-69
2022/10/13 10:01:51;;;;;;;34.75;23.58;;;13.20;99.90;;;;;;5065221;28;20124;-69
2022/10/13 10:04:23;;;;;;;32.65;22.48;;;13.30;99.90;;;;;;5048747;28;20060;-69
2022/10/13 10:06:49;;;;;;;31.05;21.23;;;13.30;99.90;;;;;;5087654;28;20090;-69
2022/10/13 10:09:43;;;;;;;31.48;22.10;;;13.30;99.90;;;;;;5065006;28;20056;-70
2022/10/13 10:12:19;;;;;;;31.33;21.73;;;13.70;99.90;;;;;;5085388;28;20079;-70
2022/10/13 10:14:47;;;;;;;30.55;21.45;;;13.40;99.90;;;;;;5072754;28;20074;-70
2022/10/13 10:17:42;;;;;;;29.83;20.98;;;13.50;99.90;;;;;;5071066;28;20057;-70
2022/10/13 10:20:18;;;;;;;29.17;21.35;;;13.40;99.90;;;;;;5044892;28;20044;-70
2022/10/13 10:22:58;;;;;;;30.80;23.48;;;13.30;99.90;;;;;;5045019;28;20053;-70
2022/10/13 10:25:40;;;;;;;30.90;21.83;;;13.30;99.90;;;;;;5063309;28;20051;-70
2022/10/13 10:28:27;;;;;;;31.20;22.05;;;14.20;99.90;;;;;;5045302;28;20036;-69
2022/10/13 10:31:17;;;;;;;32.00;22.58;;;13.40;99.90;;;;;;5029636;28;20044;-70
2022/10/13 10:34:17;;;;;;;31.75;22.48;;;13.50;99.90;;;;;;5064200;28;20048;-70
2022/10/13 10:37:12;;;;;;;32.40;24.42;;;13.40;99.90;;;;;;5063253;28;20053;-70
2022/10/13 10:39:41;;;;;;;27.20;20.65;;;13.40;99.90;;;;;;5048508;28;20124;-70
2022/10/13 10:42:31;;;;;;;33.50;22.65;;;13.40;99.90;;;;;;5064121;28;20048;-70
2022/10/13 10:45:02;;;;;;;28.55;21.55;;;13.90;99.90;;;;;;5045025;28;20072;-70
2022/10/13 10:47:41;;;;;;;33.40;21.67;;;13.30;99.90;;;;;;5063016;28;20045;-70
2022/10/13 10:50:12;;;;;;;35.63;23.02;;;13.30;99.90;;;;;;5062609;28;20041;-70
2022/10/13 10:52:41;;;;;;;37.55;23.25;;;13.30;99.90;;;;;;5045428;28;20109;-70
2022/10/13 10:55:26;;;;;;;37.45;23.60;;;13.20;99.90;;;;;;5026768;28;20037;-70
2022/10/13 10:58:14;;;;;;;34.30;23.20;;;13.30;99.90;;;;;;5043709;28;20509;-70
2022/10/13 11:01:10;;;;;;;35.22;23.02;;;13.10;99.90;;;;;;5056763;28;20045;-70
2022/10/13 11:03:45;;;;;;;39.33;25.00;;;13.20;99.90;;;;;;5047434;28;20064;-70
2022/10/13 11:06:11;;;;;;;35.40;24.65;;;13.30;99.90;;;;;;5048008;28;20044;-70
2022/10/13 11:08:36;;;;;;;38.63;24.23;;;13.20;99.90;;;;;;5044806;28;20045;-70
2022/10/13 11:11:21;;;;;;;33.20;23.95;;;13.10;99.90;;;;;;5048738;28;20057;-70
2022/10/13 11:14:00;;;;;;;37.22;24.63;;;13.20;99.90;;;;;;5066351;28;20049;-70
2022/10/13 11:16:38;;;;;;;34.87;24.83;;;13.10;99.90;;;;;;5047843;28;20053;-70
2022/10/13 11:19:08;;;;;;;37.75;25.08;;;13.20;99.90;;;;;;5048568;28;20052;-70
2022/10/13 11:21:59;;;;;;;;;;;13.10;99.90;;;;;;5049459;28;20128;-70
2022/10/13 11:24:40;;;;;;;35.40;24.92;;;13.20;99.90;;;;;;5047513;28;19932;-70
2022/10/13 11:27:15;;;;;;;40.03;26.17;;;13.20;99.90;;;;;;5048135;28;20052;-70
2022/10/13 11:29:45;;;;;;;35.60;24.30;;;13.00;99.90;;;;;;5048032;28;20064;-70
2022/10/13 11:32:40;;;;;;;39.28;25.83;;;13.30;99.90;;;;;;5066291;28;20056;-70
2022/10/13 11:35:05;;;;;;;38.17;25.73;;;13.70;99.90;;;;;;5060418;28;20033;-70
2022/10/13 11:37:53;;;;;;;38.30;25.95;;;13.40;99.90;;;;;;5048647;28;20045;-70
2022/10/13 11:40:53;;;;;;;37.15;26.10;;;13.40;99.90;;;;;;5049060;28;20120;-70
2022/10/13 11:43:56;;;;;;;38.10;26.50;;;13.70;99.90;;;;;;5060340;28;20045;-70
2022/10/13 11:46:25;;;;;;;35.13;26.30;;;13.40;99.90;;;;;;5067065;28;20052;-71
2022/10/13 11:49:16;;;;;;;40.38;26.17;;;13.50;99.90;;;;;;5048856;28;20053;-70
2022/10/13 11:52:02;;;;;;;40.20;27.98;;;13.50;99.90;;;;;;5066361;28;20040;-70
2022/10/13 11:54:40;;;;;;;35.85;26.23;;;13.50;99.90;;;;;;5048290;28;20048;-70
2022/10/13 11:57:26;;;;;;;38.97;27.42;;;13.50;99.90;;;;;;5051072;28;20512;-70
2022/10/13 11:59:54;;;;;;;39.55;26.92;;;13.30;99.90;;;;;;5047158;28;20544;-70
2022/10/13 12:02:25;;;;;;;37.63;26.95;;;13.40;99.90;;;;;;5065564;28;20497;-70
2022/10/13 12:05:17;;;;;;;38.55;27.73;;;13.50;99.90;;;;;;5065645;28;20044;-70
2022/10/13 12:07:45;;;;;;;46.70;31.27;;;13.40;99.90;;;;;;5064794;28;20084;-70
2022/10/13 12:10:23;;;;;;;45.22;29.75;;;13.40;99.90;;;;;;5065289;28;20065;-70
2022/10/13 12:12:50;;;;;;;44.88;28.02;;;13.40;99.90;;;;;;5048188;28;20044;-70
2022/10/13 12:15:31;;;;;;;45.13;27.30;;;13.40;99.90;;;;;;5063529;28;20053;-70
2022/10/13 12:17:56;;;;;;;38.30;28.13;;;13.40;99.90;;;;;;5065862;28;20053;-70
2022/10/13 12:20:25;;;;;;;39.08;27.05;;;13.40;99.90;;;;;;5070526;28;20055;-70
2022/10/13 12:22:52;;;;;;;39.50;27.30;;;13.40;99.90;;;;;;5089608;28;20040;-70
2022/10/13 12:25:24;;;;;;;43.05;28.45;;;13.50;99.90;;;;;;5067886;28;20064;-70
2022/10/13 12:27:53;;;;;;;43.60;27.67;;;13.40;99.90;;;;;;5067910;28;20052;-70
2022/10/13 12:30:27;;;;;;;43.22;26.75;;;13.40;99.90;;;;;;5087859;28;20055;-70
2022/10/13 12:32:55;;;;;;;44.88;28.42;;;13.40;99.90;;;;;;5085521;28;20127;-70
2022/10/13 12:35:32;;;;;;;47.45;28.92;;;13.40;99.90;;;;;;5071597;28;20044;-70
2022/10/13 12:38:03;;;;;;;47.88;30.25;;;13.50;99.90;;;;;;5070205;28;20048;-70
2022/10/13 12:40:29;;;;;;;42.35;28.13;;;13.40;99.90;;;;;;5069582;28;20066;-70
2022/10/13 12:42:56;;;;;;;42.80;29.08;;;13.40;99.90;;;;;;5077566;28;20044;-70
2022/10/13 12:45:26;;;;;;;39.67;27.58;;;13.40;99.90;;;;;;5068509;28;20052;-70
2022/10/13 12:47:53;;;;;;;46.08;31.92;;;13.50;99.90;;;;;;5086670;28;20048;-70